Time;durP1;ratioP1;P1;durP2;ratioP2;P2;SDS_P1;SDS_P2;PMS_P1;PMS_P2;Temp;Humidity;BMP_temperature;BMP_pressure;BME280_temperature;BME280_humidity;BME280_pressure;Samples;Min_cycle;Max_cycle;Signal;HPM_P1;HPM_P2
2023/11/02 00:01:06;;;;;;;2.20;0.88;;;11.00;99.90;;;10.73;100.00;98847.84;5026471;28;20049;-77
2023/11/02 00:03:35;;;;;;;2.92;0.88;;;11.00;99.90;;;10.82;100.00;98850.91;5035795;28;20042;-78
2023/11/02 00:06:21;;;;;;;2.65;0.70;;;11.00;99.90;;;10.84;100.00;98846.84;5030089;28;20049;-77
2023/11/02 00:09:32;;;;;;;3.05;1.00;;;11.10;99.90;;;10.82;100.00;98840.84;5030115;28;20044;-77
2023/11/02 00:12:03;;;;;;;4.30;0.82;;;11.10;99.90;;;10.83;100.00;98844.38;5024482;28;20042;-77
2023/11/02 00:14:40;;;;;;;4.97;0.80;;;11.10;99.90;;;10.71;100.00;98829.03;5023753;28;20584;-77
2023/11/02 00:17:32;;;;;;;4.07;1.00;;;11.00;99.90;;;10.64;100.00;98825.72;5030179;28;20033;-77
2023/11/02 00:19:59;;;;;;;3.67;1.00;;;10.90;99.90;;;10.56;100.00;98820.72;5014910;28;20536;-77
2023/11/02 00:22:27;;;;;;;3.63;0.80;;;10.80;99.90;;;10.47;100.00;98813.03;5016623;28;20067;-77
2023/11/02 00:25:00;;;;;;;4.50;1.08;;;10.70;99.90;;;10.35;100.00;98815.13;5020902;28;20067;-77
2023/11/02 00:27:26;;;;;;;6.22;1.00;;;10.50;99.90;;;10.18;100.00;98815.22;5018554;28;20045;-77
2023/11/02 00:29:52;;;;;;;4.40;1.00;;;10.40;99.90;;;10.15;100.00;98802.94;5020611;28;20340;-77
2023/11/02 00:32:19;;;;;;;1.70;0.70;;;;;;;10.18;100.00;98798.88;5009963;28;20041;-78
2023/11/02 00:34:46;;;;;;;2.72;0.80;;;10.40;99.90;;;10.07;100.00;98790.63;5026801;28;20481;-77
2023/11/02 00:37:12;;;;;;;2.60;0.73;;;10.40;99.90;;;10.04;100.00;98784.84;5020860;28;20377;-78
2023/11/02 00:39:38;;;;;;;3.22;1.00;;;10.20;99.90;;;9.92;100.00;98788.56;5026517;28;20106;-78
2023/11/02 00:42:04;;;;;;;3.38;0.88;;;10.10;99.90;;;9.83;100.00;98784.69;5029483;28;20037;-78
2023/11/02 00:44:33;;;;;;;3.17;0.57;;;10.00;99.90;;;9.75;100.00;98782.41;5025333;28;20021;-78
2023/11/02 00:47:01;;;;;;;5.65;0.93;;;9.90;99.90;;;9.80;100.00;98785.19;5015661;28;20046;-78
2023/11/02 00:49:37;;;;;;;5.25;1.00;;;9.90;99.90;;;9.84;100.00;98770.00;5027936;28;20056;-77
2023/11/02 00:52:05;;;;;;;3.45;0.80;;;10.00;99.90;;;9.76;100.00;98759.53;5032853;28;20044;-78
2023/11/02 00:54:58;;;;;;;3.78;0.85;;;9.90;99.90;;;9.78;100.00;98755.50;5021333;28;20165;-77
2023/11/02 00:57:40;;;;;;;2.00;0.80;;;10.00;99.90;;;9.81;100.00;98758.78;5027929;28;20137;-78
2023/11/02 01:00:22;;;;;;;2.80;0.90;;;10.00;99.90;;;9.77;100.00;98753.84;5032560;28;20043;-77
2023/11/02 01:02:48;;;;;;;3.80;0.88;;;10.00;99.90;;;9.70;100.00;98746.97;5027562;28;20080;-77
2023/11/02 01:05:26;;;;;;;5.68;0.82;;;10.00;99.90;;;9.68;100.00;98741.78;5029863;28;20117;-77
2023/11/02 01:07:52;;;;;;;3.72;0.93;;;9.90;99.90;;;9.59;100.00;98735.97;5032576;28;20504;-77
2023/11/02 01:10:26;;;;;;;4.10;1.00;;;9.90;99.90;;;9.58;100.00;98734.34;5014965;28;20065;-77
2023/11/02 01:12:54;;;;;;;3.70;1.00;;;9.90;99.90;;;9.48;100.00;98739.66;5029556;28;20056;-76
2023/11/02 01:16:07;;;;;;;4.88;0.98;;;9.80;99.90;;;9.21;100.00;98724.13;5013926;28;20034;-77
2023/11/02 01:18:34;;;;;;;5.97;0.93;;;9.60;99.90;;;9.25;100.00;98708.13;5024105;28;20053;-77
2023/11/02 01:21:06;;;;;;;3.00;1.00;;;9.60;99.90;;;9.30;100.00;98708.19;5021505;28;20037;-77
2023/11/02 01:23:34;;;;;;;3.42;0.90;;;9.60;99.90;;;9.29;100.00;98712.81;5025118;28;20209;-76
2023/11/02 01:26:08;;;;;;;3.58;1.00;;;9.60;99.90;;;9.28;100.00;98713.91;5024048;28;20136;-76
2023/11/02 01:28:53;;;;;;;3.63;0.90;;;9.50;99.90;;;9.21;100.00;98713.25;5019662;28;20034;-76
2023/11/02 01:31:21;;;;;;;4.88;0.80;;;9.50;99.90;;;9.09;100.00;98698.97;5016380;28;20041;-76
2023/11/02 01:33:57;;;;;;;4.35;0.93;;;9.40;99.90;;;9.07;100.00;98686.47;5013275;28;20042;-76
2023/11/02 01:36:40;;;;;;;6.20;1.00;;;9.40;99.90;;;8.86;100.00;98663.63;5028553;28;20045;-76
2023/11/02 01:39:15;;;;;;;3.65;0.93;;;9.30;99.90;;;8.88;100.00;98663.38;5028399;28;20085;-80
2023/11/02 01:42:03;;;;;;;5.72;1.05;;;9.20;99.90;;;8.86;100.00;98663.63;5013459;28;20041;-77
2023/11/02 01:44:47;;;;;;;8.10;1.25;;;9.20;99.90;;;8.94;100.00;98661.56;5022844;28;20061;-77
2023/11/02 01:47:49;;;;;;;4.45;0.80;;;9.20;99.90;;;8.97;100.00;98650.97;5013209;28;20060;-77
2023/11/02 01:50:46;;;;;;;6.55;1.30;;;9.30;99.90;;;8.90;100.00;98644.91;5020099;28;20490;-76
2023/11/02 01:53:45;;;;;;;1.95;0.90;;;9.20;99.90;;;8.85;100.00;98629.34;5015735;28;20120;-76
2023/11/02 01:56:24;;;;;;;1.77;1.00;;;9.20;99.90;;;8.91;100.00;98624.81;5028693;28;20041;-76
2023/11/02 01:59:20;;;;;;;3.53;1.08;;;9.30;99.90;;;9.09;100.00;98634.50;5017026;28;20551;-76
2023/11/02 02:02:05;;;;;;;3.65;1.02;;;9.40;99.90;;;9.17;100.00;98634.06;5022973;28;20403;-76
2023/11/02 02:05:01;;;;;;;1.92;0.90;;;9.50;99.90;;;9.24;100.00;98625.66;5032270;28;20048;-78
2023/11/02 02:08:16;;;;;;;4.50;1.00;;;9.50;99.90;;;9.15;100.00;98624.50;5030202;28;20045;-77
2023/11/02 02:11:08;;;;;;;3.88;0.95;;;9.40;99.90;;;9.00;100.00;98619.72;5015545;28;20042;-78
2023/11/02 02:14:19;;;;;;;2.90;0.95;;;9.20;99.90;;;8.86;100.00;98603.00;5030128;28;20040;-78
2023/11/02 02:17:13;;;;;;;2.92;0.70;;;9.20;99.90;;;8.98;100.00;98584.63;5017349;28;22231;-76
2023/11/02 02:20:09;;;;;;;2.28;0.93;;;9.30;99.90;;;9.19;100.00;98587.53;5012714;28;20121;-77
2023/11/02 02:23:34;;;;;;;4.75;1.00;;;9.50;99.90;;;9.28;100.00;98591.44;5020743;28;20045;-76
2023/11/02 02:26:20;;;;;;;2.25;1.05;;;9.70;99.90;;;9.41;100.00;98597.53;5027208;28;20096;-78
2023/11/02 02:29:22;;;;;;;3.63;1.08;;;9.80;99.90;;;9.42;100.00;98604.59;5035418;28;20153;-78
2023/11/02 02:33:22;;;;;;;4.85;0.80;;;9.90;99.90;;;9.43;100.00;98595.38;5027770;28;20493;-78
2023/11/02 02:36:04;;;;;;;1.92;0.85;;;9.90;99.90;;;9.42;100.00;98588.28;4938605;28;20062;-77
2023/11/02 02:39:04;;;;;;;3.30;0.70;;;9.90;99.90;;;9.26;100.00;98579.97;5027528;28;20038;-77
2023/11/02 02:41:39;;;;;;;2.47;0.80;;;9.80;99.90;;;9.21;100.00;98577.22;5022739;28;20072;-76
2023/11/02 02:44:09;;;;;;;4.15;0.90;;;9.70;99.90;;;9.14;100.00;98566.53;5026393;28;20087;-77
2023/11/02 02:46:38;;;;;;;6.43;1.30;;;9.70;99.90;;;9.16;100.00;98556.25;5032559;28;20438;-76
2023/11/02 02:49:04;;;;;;;2.20;1.10;;;9.60;99.90;;;9.02;100.00;98553.13;5012630;28;20042;-77
2023/11/02 02:51:35;;;;;;;3.42;1.10;;;9.60;99.90;;;9.02;100.00;98544.13;5011814;28;20050;-77
2023/11/02 02:54:12;;;;;;;6.10;1.10;;;9.50;99.90;;;9.00;100.00;98538.94;5038237;28;20048;-77
2023/11/02 02:56:41;;;;;;;3.17;0.80;;;9.50;99.90;;;9.09;100.00;98542.00;5025083;28;20073;-76
2023/11/02 02:59:09;;;;;;;4.47;1.20;;;9.60;99.90;;;9.18;100.00;98543.19;5011196;28;20076;-76
2023/11/02 03:01:46;;;;;;;3.03;1.02;;;9.60;99.90;;;9.19;100.00;98547.56;5018533;28;20116;-77
2023/11/02 03:04:19;;;;;;;3.35;1.02;;;9.70;99.90;;;9.16;100.00;98531.75;5024715;28;20037;-77
2023/11/02 03:06:53;;;;;;;4.05;1.10;;;9.60;99.90;;;9.20;100.00;98548.38;5023645;28;20485;-77
2023/11/02 03:09:23;;;;;;;4.18;0.93;;;9.60;99.90;;;9.16;100.00;98522.75;5013185;28;20044;-77
2023/11/02 03:11:57;;;;;;;3.42;0.90;;;9.60;99.90;;;9.18;100.00;98523.31;5024812;28;20103;-77
2023/11/02 03:14:26;;;;;;;2.58;0.70;;;9.60;99.90;;;9.08;100.00;98505.00;5021018;28;20033;-77
2023/11/02 03:16:56;;;;;;;3.70;1.00;;;9.50;99.90;;;9.17;100.00;98508.91;5030849;28;20111;-77
2023/11/02 03:19:50;;;;;;;2.58;1.05;;;9.60;99.90;;;9.08;100.00;98502.28;5033701;28;20405;-77
2023/11/02 03:22:22;;;;;;;5.30;1.08;;;9.50;99.90;;;9.01;100.00;98488.91;5026674;28;20026;-77
2023/11/02 03:25:17;;;;;;;2.67;0.90;;;9.40;99.90;;;8.91;100.00;98484.22;5027095;28;20037;-75
2023/11/02 03:28:06;;;;;;;2.80;1.13;;;9.40;99.90;;;8.87;100.00;98485.78;5028566;28;20075;-78
2023/11/02 03:30:57;;;;;;;3.53;1.05;;;9.30;99.90;;;8.70;100.00;98490.56;5028668;28;20104;-76
2023/11/02 03:33:48;;;;;;;3.97;0.90;;;9.10;99.90;;;8.70;100.00;98475.03;5026572;28;20060;-76
2023/11/02 03:36:22;;;;;;;4.30;1.20;;;9.10;99.90;;;8.54;100.00;98463.22;5029310;28;20038;-75
2023/11/02 03:39:19;;;;;;;5.57;1.10;;;9.00;99.90;;;8.51;100.00;98457.47;5017949;28;20092;-75
2023/11/02 03:42:13;;;;;;;3.92;1.13;;;8.90;99.90;;;8.47;100.00;98443.56;5024020;28;20064;-76
2023/11/02 03:45:31;;;;;;;3.95;1.33;;;8.80;99.90;;;8.57;100.00;98429.28;5023869;28;20322;-76
2023/11/02 03:48:25;;;;;;;2.63;1.10;;;8.90;99.90;;;8.63;100.00;98420.91;5029073;28;20042;-76
2023/11/02 03:51:37;;;;;;;4.63;1.23;;;9.00;99.90;;;8.95;100.00;98421.16;5023484;28;20039;-76
2023/11/02 03:54:06;;;;;;;4.13;1.00;;;9.30;99.90;;;9.10;100.00;98431.31;5013038;28;20071;-76
2023/11/02 03:57:11;;;;;;;3.33;0.80;;;9.50;99.90;;;9.12;100.00;98405.47;5036409;28;20038;-76
2023/11/02 04:00:11;;;;;;;7.13;1.00;;;9.60;99.90;;;9.24;100.00;98416.16;5027497;28;20048;-78
2023/11/02 04:02:56;;;;;;;3.67;0.95;;;9.70;99.90;;;9.16;100.00;98406.63;5017593;28;20038;-77
2023/11/02 04:05:29;;;;;;;3.50;1.10;;;9.70;99.90;;;9.10;100.00;98401.41;5019001;28;20037;-77
2023/11/02 04:08:12;;;;;;;4.07;1.00;;;9.60;99.90;;;9.02;100.00;98400.81;5018346;28;20040;-77
2023/11/02 04:11:01;;;;;;;2.78;0.93;;;9.50;99.90;;;9.02;100.00;98389.09;5031214;28;20125;-77
2023/11/02 04:13:38;;;;;;;4.30;1.30;;;9.50;99.90;;;8.92;100.00;98376.25;5022923;28;20068;-78
2023/11/02 04:16:06;;;;;;;1.55;0.77;;;9.40;99.90;;;8.90;100.00;98362.09;5019480;28;20112;-77
2023/11/02 04:18:32;;;;;;;5.20;1.02;;;9.40;99.90;;;8.86;100.00;98345.47;5016525;28;20121;-78
2023/11/02 04:20:58;;;;;;;4.45;1.10;;;9.40;99.90;;;8.84;100.00;98330.53;5020059;28;20025;-77
2023/11/02 04:23:24;;;;;;;4.30;1.20;;;9.30;99.90;;;8.76;100.00;98338.09;5029356;28;20452;-77
2023/11/02 04:25:54;;;;;;;3.08;0.90;;;9.20;99.90;;;8.61;100.00;98314.31;5036612;28;20038;-77
2023/11/02 04:28:21;;;;;;;3.88;0.98;;;9.10;99.90;;;8.54;100.00;98300.16;5030142;28;20084;-77
2023/11/02 04:30:47;;;;;;;3.25;1.20;;;9.00;99.90;;;8.46;100.00;98292.47;5030341;28;20208;-77
2023/11/02 04:33:13;;;;;;;4.20;1.10;;;8.80;99.90;;;8.34;100.00;98282.56;5037031;28;20036;-78
2023/11/02 04:35:41;;;;;;;3.83;1.08;;;8.70;99.90;;;8.25;100.00;98269.75;5031952;28;20371;-78
2023/11/02 04:38:09;;;;;;;3.67;1.17;;;8.60;99.90;;;8.19;100.00;98261.53;5025964;28;20525;-78
2023/11/02 04:40:36;;;;;;;5.88;1.13;;;8.50;99.90;;;8.08;100.00;98232.69;5035046;28;20290;-78
2023/11/02 04:43:03;;;;;;;4.82;1.27;;;8.40;99.90;;;8.02;100.00;98201.94;5032058;28;20129;-78
2023/11/02 04:45:29;;;;;;;2.63;1.10;;;8.30;99.90;;;7.89;100.00;98184.19;5034381;28;20536;-77
2023/11/02 04:47:55;;;;;;;6.00;1.17;;;8.30;99.90;;;7.92;100.00;98163.88;5027063;28;20046;-77
2023/11/02 04:50:22;;;;;;;7.43;1.92;;;8.20;99.90;;;7.90;100.00;98117.16;5030162;28;20123;-78
2023/11/02 04:52:52;;;;;;;4.90;1.40;;;8.30;99.90;;;8.10;100.00;98115.66;5031357;28;20049;-77
2023/11/02 04:55:19;;;;;;;6.45;1.52;;;8.40;99.90;;;8.48;100.00;98130.78;5028122;28;20049;-78
2023/11/02 04:57:48;;;;;;;3.80;1.20;;;8.80;99.90;;;8.90;100.00;98156.28;5016725;28;20069;-77
2023/11/02 05:00:14;;;;;;;3.00;0.80;;;9.20;99.90;;;9.16;100.00;98188.16;5023268;28;20121;-76
2023/11/02 05:02:40;;;;;;;4.70;0.90;;;9.50;99.90;;;9.26;100.00;98188.19;5017518;28;20490;-77
2023/11/02 05:05:07;;;;;;;3.67;1.25;;;9.70;99.90;;;9.45;100.00;98202.13;5024115;28;20037;-77
2023/11/02 05:07:32;;;;;;;7.05;1.30;;;9.90;99.90;;;9.59;100.00;98217.91;5024637;28;20081;-76
2023/11/02 05:09:58;;;;;;;6.25;0.98;;;10.10;99.90;;;9.72;100.00;98217.41;5024427;28;20113;-75
2023/11/02 05:12:24;;;;;;;6.63;0.98;;;10.20;99.90;;;9.72;100.00;98224.75;5026410;28;20036;-76
2023/11/02 05:14:49;;;;;;;4.47;0.90;;;10.20;99.90;;;9.70;100.00;98219.59;5031296;28;20448;-75
2023/11/02 05:17:15;;;;;;;6.80;1.10;;;10.30;99.90;;;9.66;100.00;98218.47;5030711;28;20492;-75
2023/11/02 05:19:41;;;;;;;3.40;0.70;;;10.20;99.90;;;9.65;100.00;98216.84;5036607;28;20508;-75
2023/11/02 05:22:08;;;;;;;3.30;0.93;;;10.20;99.90;;;9.66;100.00;98213.00;5022652;28;20033;-77
2023/11/02 05:24:34;;;;;;;4.55;1.20;;;10.20;99.90;;;9.61;100.00;98216.56;5029639;28;20041;-75
2023/11/02 05:27:00;;;;;;;4.93;0.90;;;10.10;99.90;;;9.66;100.00;98214.94;5022356;28;20132;-75
2023/11/02 05:29:26;;;;;;;5.28;1.27;;;10.20;99.90;;;9.67;100.00;98208.41;5031880;28;20061;-76
2023/11/02 05:31:52;;;;;;;3.20;1.15;;;10.20;99.90;;;9.71;100.00;98198.59;5021801;28;20552;-76
2023/11/02 05:34:17;;;;;;;5.32;1.00;;;10.20;99.90;;;9.68;100.00;98196.44;5028285;28;20037;-76
2023/11/02 05:36:43;;;;;;;4.15;0.98;;;10.20;99.90;;;9.69;100.00;98195.34;5027101;28;20048;-76
2023/11/02 05:39:09;;;;;;;6.85;1.38;;;10.20;99.90;;;9.79;100.00;98189.88;5023007;28;20438;-76
2023/11/02 05:41:35;;;;;;;3.67;0.73;;;10.30;99.90;;;9.82;100.00;98185.81;5033479;28;20038;-76
2023/11/02 05:44:01;;;;;;;5.90;0.90;;;10.30;99.90;;;9.87;100.00;98202.97;5019088;28;20107;-76
2023/11/02 05:46:27;;;;;;;4.80;1.05;;;10.40;99.90;;;9.81;100.00;98184.97;5022800;28;20115;-76
2023/11/02 05:48:52;;;;;;;5.03;0.80;;;10.40;99.90;;;9.96;100.00;98194.25;5028714;28;20030;-76
2023/11/02 05:51:18;;;;;;;5.03;1.30;;;10.40;99.90;;;9.97;100.00;98185.81;5027168;28;20546;-76
2023/11/02 05:53:44;;;;;;;5.25;1.08;;;10.50;99.90;;;9.97;100.00;98187.72;5026672;28;20042;-77
2023/11/02 05:56:10;;;;;;;3.50;0.77;;;10.40;99.90;;;9.85;100.00;98172.47;5020008;28;20408;-75
2023/11/02 05:58:36;;;;;;;5.75;1.00;;;10.40;99.90;;;9.85;100.00;98168.94;5027851;28;20033;-77
2023/11/02 06:01:02;;;;;;;5.50;1.20;;;10.30;99.90;;;9.76;100.00;98160.47;5032596;28;20053;-77
2023/11/02 06:03:29;;;;;;;3.03;0.95;;;10.20;99.90;;;9.71;100.00;98149.59;5019499;28;20026;-77
2023/11/02 06:05:54;;;;;;;8.70;1.20;;;10.20;99.90;;;9.67;100.00;98146.59;5019521;28;20115;-76
2023/11/02 06:08:20;;;;;;;4.05;0.90;;;10.10;99.90;;;9.62;100.00;98149.31;5039082;28;20088;-76
2023/11/02 06:10:46;;;;;;;4.35;1.00;;;10.10;99.90;;;9.70;100.00;98140.63;5020681;28;20033;-76
2023/11/02 06:13:12;;;;;;;3.83;0.98;;;10.20;99.90;;;9.74;100.00;98135.44;5029019;28;20038;-76
2023/11/02 06:15:38;;;;;;;3.05;0.82;;;10.20;99.90;;;9.75;100.00;98135.19;5022045;28;20052;-77
2023/11/02 06:18:06;;;;;;;3.80;1.10;;;10.20;99.90;;;9.82;100.00;98134.06;5028011;28;20481;-77
2023/11/02 06:20:33;;;;;;;4.30;0.97;;;10.20;99.90;;;9.86;100.00;98113.38;5020377;28;20030;-77
2023/11/02 06:23:01;;;;;;;6.43;1.30;;;10.20;99.90;;;9.89;100.00;98132.72;5024476;28;20056;-77
2023/11/02 06:25:27;;;;;;;;;;;10.30;99.90;;;10.01;100.00;98129.72;5016474;28;20120;-77
2023/11/02 06:27:53;;;;;;;4.93;1.08;;;10.40;99.90;;;9.98;100.00;98110.38;5023941;28;19924;-76
2023/11/02 06:30:19;;;;;;;3.50;1.00;;;10.40;99.90;;;10.04;100.00;98109.25;5022831;28;20037;-78
2023/11/02 06:32:45;;;;;;;3.42;0.90;;;10.50;99.90;;;9.99;100.00;98079.31;5026855;28;20045;-77
2023/11/02 06:35:11;;;;;;;3.60;0.77;;;10.40;99.90;;;10.04;100.00;98065.66;5015476;28;20040;-78
2023/11/02 06:37:59;;;;;;;4.97;1.00;;;10.50;99.90;;;10.22;100.00;98050.66;5021470;28;20041;-77
2023/11/02 06:40:27;;;;;;;3.57;0.60;;;10.70;99.90;;;10.32;100.00;98044.31;5027180;28;20703;-77
2023/11/02 06:42:58;;;;;;;;;;;10.70;99.90;;;10.16;100.00;98047.13;5028880;28;20285;-76
2023/11/02 06:45:24;;;;;;;3.47;0.80;;;10.70;99.90;;;9.97;100.00;98043.38;5028249;28;19917;-77
2023/11/02 06:47:50;;;;;;;3.90;0.77;;;10.50;99.90;;;9.93;100.00;98040.38;5018914;28;20038;-77
2023/11/02 06:50:17;;;;;;;6.18;1.13;;;10.50;99.90;;;9.79;100.00;98026.50;5028741;28;20030;-78
2023/11/02 06:52:43;;;;;;;5.20;1.00;;;10.40;99.90;;;9.72;100.00;98001.50;5018071;28;20033;-76
2023/11/02 06:55:10;;;;;;;4.55;0.85;;;10.30;99.90;;;9.54;100.00;97992.81;5029177;28;20061;-77
2023/11/02 06:57:36;;;;;;;2.72;1.30;;;10.20;99.90;;;9.44;100.00;97976.50;5028844;28;20044;-77
2023/11/02 07:00:05;;;;;;;6.65;1.10;;;10.00;99.90;;;9.40;100.00;97976.22;5037279;28;20041;-77
2023/11/02 07:02:32;;;;;;;6.65;1.05;;;10.00;99.90;;;9.44;100.00;97981.94;5038622;28;20132;-77
2023/11/02 07:04:58;;;;;;;5.50;1.00;;;10.00;99.90;;;9.43;100.00;97969.44;5044356;28;20063;-77
2023/11/02 07:07:24;;;;;;;3.33;1.00;;;10.00;99.90;;;9.38;100.00;97967.53;5027627;28;20030;-78
2023/11/02 07:09:53;;;;;;;4.63;0.98;;;10.00;99.90;;;9.46;100.00;97963.44;5015817;28;20121;-77
2023/11/02 07:12:19;;;;;;;2.92;0.80;;;10.00;99.90;;;9.50;100.00;97959.06;5032108;28;20043;-77
2023/11/02 07:14:46;;;;;;;5.63;1.20;;;10.00;99.90;;;9.47;100.00;97929.69;5021671;28;20395;-78
2023/11/02 07:17:13;;;;;;;4.28;0.75;;;10.00;99.90;;;9.52;100.00;97916.06;5031806;28;20033;-77
2023/11/02 07:19:39;;;;;;;3.58;0.93;;;10.00;99.90;;;9.51;100.00;97898.09;5025233;28;20369;-78
2023/11/02 07:22:04;;;;;;;3.67;1.05;;;10.00;99.90;;;9.57;100.00;97888.03;5024377;28;20740;-78
2023/11/02 07:24:30;;;;;;;3.15;0.85;;;10.10;99.90;;;9.55;100.00;97893.75;5030252;28;20037;-76
2023/11/02 07:26:57;;;;;;;6.60;1.40;;;10.00;99.90;;;9.58;100.00;97892.38;5030848;28;20033;-76
2023/11/02 07:29:23;;;;;;;2.58;0.90;;;10.10;99.90;;;9.67;100.00;97898.06;5029889;28;20052;-76
2023/11/02 07:31:49;;;;;;;3.47;1.02;;;10.10;99.90;;;9.72;100.00;97906.19;5020729;28;22580;-77
2023/11/02 07:34:14;;;;;;;3.95;0.90;;;10.20;99.90;;;9.83;100.00;97896.09;5025296;28;20048;-74
2023/11/02 07:36:40;;;;;;;3.17;0.90;;;10.30;99.90;;;9.92;100.00;97853.56;5029877;28;20122;-74
2023/11/02 07:39:06;;;;;;;3.08;0.80;;;10.30;99.90;;;9.99;100.00;97834.19;5028716;28;20167;-75
2023/11/02 07:41:32;;;;;;;5.88;1.00;;;10.40;99.90;;;10.12;100.00;97849.09;5027760;28;20041;-75
2023/11/02 07:43:58;;;;;;;3.03;0.88;;;10.60;99.90;;;10.14;100.00;97825.94;5029813;28;20041;-75
2023/11/02 07:46:24;;;;;;;2.40;0.90;;;10.60;99.90;;;10.40;100.00;97823.03;5022437;28;20117;-76
2023/11/02 07:48:51;;;;;;;3.30;0.80;;;10.90;99.90;;;10.55;100.00;97783.94;5022082;28;20539;-75
2023/11/02 07:51:16;;;;;;;3.30;0.65;;;11.10;99.90;;;10.92;100.00;97773.50;5023443;28;20030;-74
2023/11/02 07:53:42;;;;;;;7.90;0.88;;;11.30;99.90;;;11.18;100.00;97768.53;5024007;28;20099;-75
2023/11/02 07:56:11;;;;;;;3.17;0.70;;;11.70;99.90;;;11.41;100.00;97777.00;5028327;28;20092;-75
2023/11/02 07:58:42;;;;;;;2.70;0.65;;;11.90;99.90;;;11.48;100.00;97738.44;5020404;28;20116;-75
2023/11/02 08:01:08;;;;;;;1.75;0.55;;;12.10;99.90;;;11.57;100.00;97754.97;5029872;28;20083;-75
2023/11/02 08:03:34;;;;;;;2.90;1.15;;;12.10;99.90;;;11.48;100.00;97765.72;5012529;28;20497;-74
2023/11/02 08:06:01;;;;;;;4.68;0.90;;;12.20;99.90;;;11.45;100.00;97753.47;5014639;28;20033;-75
2023/11/02 08:08:27;;;;;;;4.10;1.00;;;12.00;99.90;;;11.53;100.00;97752.00;5020956;28;20049;-74
2023/11/02 08:10:52;;;;;;;2.42;0.60;;;12.10;99.90;;;11.47;100.00;97758.66;5023078;28;20363;-74
2023/11/02 08:13:18;;;;;;;3.47;0.80;;;12.10;99.90;;;11.63;100.00;97738.19;5018141;28;20033;-74
2023/11/02 08:15:44;;;;;;;2.83;0.50;;;12.20;99.90;;;11.70;100.00;97751.50;5023203;28;20128;-75
2023/11/02 08:18:11;;;;;;;2.55;0.50;;;12.30;99.90;;;11.79;100.00;97746.19;5028414;28;20151;-74
2023/11/02 08:20:36;;;;;;;3.75;0.60;;;12.40;99.90;;;11.65;100.00;97730.53;5026837;28;20120;-75
2023/11/02 08:23:03;;;;;;;3.78;0.70;;;12.30;99.90;;;11.64;100.00;97709.78;5028852;28;20055;-74
2023/11/02 08:25:28;;;;;;;2.60;0.77;;;12.30;99.90;;;11.66;100.00;97707.56;5029936;28;20037;-75
2023/11/02 08:27:58;;;;;;;3.20;0.70;;;12.30;99.90;;;11.76;100.00;97706.59;5014244;28;20046;-75
2023/11/02 08:30:25;;;;;;;2.75;0.60;;;12.30;99.90;;;11.70;100.00;97720.66;5025823;28;20036;-75
2023/11/02 08:32:53;;;;;;;4.70;0.80;;;12.30;99.90;;;11.69;100.00;97736.22;5030188;28;20058;-74
2023/11/02 08:35:21;;;;;;;;;;;12.20;99.90;;;11.69;100.00;97751.81;5011978;28;20433;-75
2023/11/02 08:37:50;;;;;;;1.70;0.57;;;12.30;99.90;;;11.79;100.00;97736.06;5023005;28;19921;-76
2023/11/02 08:40:18;;;;;;;2.28;0.70;;;12.30;99.90;;;11.76;100.00;97763.16;5010868;28;20105;-74
2023/11/02 08:42:48;;;;;;;4.35;0.70;;;12.40;99.90;;;11.70;100.00;97764.34;5026431;28;20040;-74
2023/11/02 08:45:16;;;;;;;3.33;0.68;;;12.30;99.90;;;11.57;100.00;97747.56;5029781;28;20057;-74
2023/11/02 08:47:42;;;;;;;;;;;12.20;99.90;;;11.78;100.00;97760.94;5024650;28;20092;-74
2023/11/02 08:50:11;;;;;;;2.40;0.50;;;12.30;99.90;;;11.79;100.00;97751.66;5020929;28;19928;-74
2023/11/02 08:52:38;;;;;;;4.03;0.40;;;12.40;99.90;;;11.89;100.00;97750.69;5027308;28;20037;-74
2023/11/02 08:55:04;;;;;;;2.70;0.50;;;12.40;99.90;;;11.93;100.00;97747.06;5017224;28;20069;-75
2023/11/02 08:57:31;;;;;;;4.07;0.60;;;12.50;99.90;;;11.99;100.00;97745.06;5023467;28;20140;-74
2023/11/02 09:00:00;;;;;;;1.95;0.55;;;12.60;99.90;;;12.00;100.00;97745.88;5016807;28;20030;-75
2023/11/02 09:02:26;;;;;;;2.38;0.50;;;12.50;99.90;;;12.05;100.00;97726.69;5027488;28;20036;-75
2023/11/02 09:04:53;;;;;;;4.05;0.52;;;12.50;99.90;;;12.02;100.00;97721.81;5030610;28;20125;-75
2023/11/02 09:07:20;;;;;;;1.30;0.50;;;12.50;99.90;;;11.99;100.00;97736.06;5028313;28;20132;-76
2023/11/02 09:09:46;;;;;;;1.15;0.50;;;12.50;99.90;;;12.03;100.00;97726.97;5033478;28;20575;-74
2023/11/02 09:12:11;;;;;;;2.33;0.40;;;12.60;99.90;;;12.03;100.00;97699.66;5029448;28;20112;-75
2023/11/02 09:14:37;;;;;;;3.80;0.60;;;12.60;99.90;;;12.14;100.00;97737.75;5028724;28;20390;-74
2023/11/02 09:17:04;;;;;;;0.77;0.40;;;12.60;99.90;;;12.19;100.00;97726.75;5032844;28;20486;-75
2023/11/02 09:19:30;;;;;;;1.95;0.60;;;12.70;99.90;;;12.19;100.00;97749.41;5026861;28;20052;-75
2023/11/02 09:21:56;;;;;;;1.20;0.40;;;12.80;99.90;;;12.17;100.00;97757.09;5033139;28;20037;-75
2023/11/02 09:24:22;;;;;;;1.20;0.50;;;12.80;99.90;;;12.18;100.00;97758.72;5033146;28;20489;-75
2023/11/02 09:26:47;;;;;;;2.17;0.80;;;12.70;99.90;;;12.16;100.00;97769.13;5032555;28;20038;-74
2023/11/02 09:29:14;;;;;;;2.60;0.65;;;12.70;99.90;;;12.08;100.00;97737.84;5030601;28;20038;-74
2023/11/02 09:31:42;;;;;;;1.42;0.50;;;12.70;99.90;;;12.22;100.00;97748.84;5023342;28;20041;-74
2023/11/02 09:34:10;;;;;;;1.25;0.60;;;12.70;99.90;;;12.25;100.00;97765.75;5029185;28;20037;-74
2023/11/02 09:36:37;;;;;;;1.40;0.70;;;12.80;99.90;;;12.22;100.00;97746.09;5029586;28;20048;-74
2023/11/02 09:39:10;;;;;;;3.13;0.43;;;12.80;99.90;;;12.19;100.00;97710.34;5024902;28;20033;-74
2023/11/02 09:41:36;;;;;;;1.48;0.40;;;12.80;99.90;;;12.25;100.00;97700.16;5023256;28;20030;-74
2023/11/02 09:44:05;;;;;;;1.23;0.45;;;12.80;99.90;;;12.16;100.00;97689.88;5026271;28;20041;-74
2023/11/02 09:46:34;;;;;;;1.55;0.68;;;12.80;99.90;;;12.11;100.00;97708.31;5021123;28;20551;-75
2023/11/02 09:49:01;;;;;;;4.00;0.90;;;12.70;99.90;;;12.11;100.00;97700.09;5030918;28;20038;-74
2023/11/02 09:51:28;;;;;;;3.67;0.60;;;12.70;99.90;;;12.10;100.00;97701.22;5030744;28;20042;-74
2023/11/02 09:53:54;;;;;;;1.80;0.70;;;12.70;99.90;;;12.07;100.00;97694.41;5022017;28;20444;-74
2023/11/02 09:56:22;;;;;;;1.38;0.50;;;12.70;99.90;;;12.10;100.00;97726.59;5025815;28;20748;-74
2023/11/02 09:58:50;;;;;;;1.60;0.50;;;12.70;99.90;;;12.07;100.00;97725.31;5041268;28;20507;-74
2023/11/02 10:01:18;;;;;;;4.10;0.73;;;12.60;99.90;;;12.10;100.00;97691.09;5024040;28;20041;-74
2023/11/02 10:03:44;;;;;;;1.83;0.50;;;12.60;99.90;;;12.14;100.00;97683.91;5030146;28;20041;-74
2023/11/02 10:06:10;;;;;;;1.67;0.60;;;12.70;99.90;;;12.18;100.00;97663.06;5031448;28;20041;-74
2023/11/02 10:08:36;;;;;;;1.52;0.73;;;12.70;99.90;;;12.13;100.00;97673.28;5028187;28;20116;-74
2023/11/02 10:11:18;;;;;;;2.35;0.47;;;12.80;99.90;;;12.19;100.00;97666.63;5028603;28;20157;-74
2023/11/02 10:13:50;;;;;;;1.85;0.52;;;12.70;99.90;;;12.13;100.00;97657.69;5020562;28;20120;-74
2023/11/02 10:16:25;;;;;;;1.33;0.50;;;12.70;99.90;;;12.20;100.00;97677.25;5025760;28;20088;-74
2023/11/02 10:18:52;;;;;;;0.95;0.35;;;12.80;99.90;;;12.18;100.00;97668.53;5032198;28;20207;-75
2023/11/02 10:21:19;;;;;;;1.25;0.60;;;12.80;99.90;;;12.11;100.00;97648.19;5031856;28;20068;-74
2023/11/02 10:23:58;;;;;;;1.80;0.60;;;12.70;99.90;;;12.16;100.00;97662.56;5023736;28;20034;-75
2023/11/02 10:26:26;;;;;;;;;;;12.70;99.90;;;12.23;100.00;97656.69;5028356;28;20033;-74
2023/11/02 10:28:54;;;;;;;2.00;0.50;;;12.80;99.90;;;12.20;100.00;97651.84;5018635;28;19924;-74
2023/11/02 10:31:25;;;;;;;3.53;0.73;;;12.80;99.90;;;12.25;100.00;97653.69;5023643;28;20422;-75
2023/11/02 10:33:51;;;;;;;2.10;0.70;;;12.80;99.90;;;12.37;100.00;97663.00;5026756;28;20071;-74
2023/11/02 10:36:18;;;;;;;1.55;0.68;;;12.90;99.90;;;12.52;100.00;97659.19;5027997;28;20436;-75
2023/11/02 10:38:45;;;;;;;3.55;0.90;;;13.10;99.90;;;12.54;100.00;97655.34;5025445;28;20544;-75
2023/11/02 10:41:16;;;;;;;0.65;0.30;;;13.20;99.90;;;12.58;100.00;97640.72;5025953;28;20045;-74
2023/11/02 10:43:47;;;;;;;1.08;0.43;;;13.20;99.90;;;12.56;100.00;97645.69;5019111;28;20034;-75